sensor_id;sensor_type;location;lat;lon;timestamp;P1;durP1;ratioP1;P2;durP2;ratioP2
12591;SDS011;6361;52.120;5.108;2023-05-21T00:00:06;5.85;;;3.00;;
12591;SDS011;6361;52.120;5.108;2023-05-21T00:02:35;5.18;;;3.10;;
12591;SDS011;6361;52.120;5.108;2023-05-21T00:05:01;5.75;;;2.70;;
12591;SDS011;6361;52.120;5.108;2023-05-21T00:07:26;5.82;;;3.00;;
12591;SDS011;6361;52.120;5.108;2023-05-21T00:09:51;3.67;;;2.88;;
12591;SDS011;6361;52.120;5.108;2023-05-21T00:12:17;3.72;;;2.80;;
12591;SDS011;6361;52.120;5.108;2023-05-21T00:14:42;5.20;;;3.47;;
12591;SDS011;6361;52.120;5.108;2023-05-21T00:17:08;4.32;;;2.80;;
12591;SDS011;6361;52.120;5.108;2023-05-21T00:19:33;9.32;;;3.22;;
12591;SDS011;6361;52.120;5.108;2023-05-21T00:21:58;5.28;;;3.05;;
12591;SDS011;6361;52.120;5.108;2023-05-21T00:24:27;5.90;;;2.88;;
12591;SDS011;6361;52.120;5.108;2023-05-21T00:26:53;6.80;;;3.20;;
12591;SDS011;6361;52.120;5.108;2023-05-21T00:29:18;4.60;;;3.03;;
12591;SDS011;6361;52.120;5.108;2023-05-21T00:31:44;5.35;;;3.10;;
12591;SDS011;6361;52.120;5.108;2023-05-21T00:34:09;4.45;;;3.10;;
12591;SDS011;6361;52.120;5.108;2023-05-21T00:36:34;7.75;;;3.35;;
12591;SDS011;6361;52.120;5.108;2023-05-21T00:39:00;3.88;;;3.47;;
12591;SDS011;6361;52.120;5.108;2023-05-21T00:41:26;5.40;;;3.38;;
12591;SDS011;6361;52.120;5.108;2023-05-21T00:43:54;5.75;;;3.05;;
12591;SDS011;6361;52.120;5.108;2023-05-21T00:46:20;5.57;;;3.20;;
12591;SDS011;6361;52.120;5.108;2023-05-21T00:48:46;5.03;;;3.22;;
12591;SDS011;6361;52.120;5.108;2023-05-21T00:51:15;4.45;;;3.20;;
12591;SDS011;6361;52.120;5.108;2023-05-21T00:53:41;5.95;;;3.55;;
12591;SDS011;6361;52.120;5.108;2023-05-21T00:56:06;5.43;;;3.47;;
12591;SDS011;6361;52.120;5.108;2023-05-21T00:58:32;6.75;;;3.60;;
12591;SDS011;6361;52.120;5.108;2023-05-21T01:00:58;6.90;;;3.33;;
12591;SDS011;6361;52.120;5.108;2023-05-21T01:03:28;6.55;;;3.38;;
12591;SDS011;6361;52.120;5.108;2023-05-21T01:05:54;6.20;;;3.38;;
12591;SDS011;6361;52.120;5.108;2023-05-21T01:08:23;6.70;;;3.58;;
12591;SDS011;6361;52.120;5.108;2023-05-21T01:10:49;6.38;;;3.88;;
12591;SDS011;6361;52.120;5.108;2023-05-21T01:13:15;3.72;;;3.20;;
12591;SDS011;6361;52.120;5.108;2023-05-21T01:15:44;7.45;;;4.18;;
12591;SDS011;6361;52.120;5.108;2023-05-21T01:18:10;5.50;;;3.42;;
12591;SDS011;6361;52.120;5.108;2023-05-21T01:20:36;5.07;;;3.25;;
12591;SDS011;6361;52.120;5.108;2023-05-21T01:23:01;4.53;;;3.70;;
12591;SDS011;6361;52.120;5.108;2023-05-21T01:25:27;4.55;;;3.67;;
12591;SDS011;6361;52.120;5.108;2023-05-21T01:27:52;7.28;;;4.00;;
12591;SDS011;6361;52.120;5.108;2023-05-21T01:30:18;6.40;;;3.50;;
12591;SDS011;6361;52.120;5.108;2023-05-21T01:38:28;7.10;;;4.20;;
12591;SDS011;6361;52.120;5.108;2023-05-21T01:40:59;7.50;;;3.92;;
12591;SDS011;6361;52.120;5.108;2023-05-21T01:43:28;6.40;;;3.70;;
12591;SDS011;6361;52.120;5.108;2023-05-21T01:45:55;5.85;;;4.10;;
12591;SDS011;6361;52.120;5.108;2023-05-21T01:48:22;7.88;;;3.90;;
12591;SDS011;6361;52.120;5.108;2023-05-21T01:50:48;4.63;;;3.80;;
12591;SDS011;6361;52.120;5.108;2023-05-21T01:53:14;5.93;;;4.40;;
12591;SDS011;6361;52.120;5.108;2023-05-21T01:55:39;5.53;;;4.30;;
12591;SDS011;6361;52.120;5.108;2023-05-21T01:58:05;5.55;;;4.50;;
12591;SDS011;6361;52.120;5.108;2023-05-21T02:00:31;5.43;;;4.13;;
12591;SDS011;6361;52.120;5.108;2023-05-21T02:02:58;6.43;;;3.88;;
12591;SDS011;6361;52.120;5.108;2023-05-21T02:05:24;7.50;;;4.30;;
12591;SDS011;6361;52.120;5.108;2023-05-21T02:07:49;6.30;;;4.40;;
12591;SDS011;6361;52.120;5.108;2023-05-21T02:10:19;6.80;;;4.55;;
12591;SDS011;6361;52.120;5.108;2023-05-21T02:12:44;7.15;;;4.15;;
12591;SDS011;6361;52.120;5.108;2023-05-21T02:15:10;5.53;;;4.28;;
12591;SDS011;6361;52.120;5.108;2023-05-21T02:17:35;7.35;;;4.25;;
12591;SDS011;6361;52.120;5.108;2023-05-21T02:20:02;8.02;;;4.60;;
12591;SDS011;6361;52.120;5.108;2023-05-21T02:22:36;5.57;;;4.45;;
12591;SDS011;6361;52.120;5.108;2023-05-21T02:25:02;7.60;;;5.03;;
12591;SDS011;6361;52.120;5.108;2023-05-21T02:27:28;6.35;;;4.68;;
12591;SDS011;6361;52.120;5.108;2023-05-21T02:29:55;5.32;;;4.15;;
12591;SDS011;6361;52.120;5.108;2023-05-21T02:32:21;6.72;;;4.45;;
12591;SDS011;6361;52.120;5.108;2023-05-21T02:34:47;6.43;;;4.40;;
12591;SDS011;6361;52.120;5.108;2023-05-21T02:37:14;8.40;;;4.43;;
12591;SDS011;6361;52.120;5.108;2023-05-21T02:39:39;5.75;;;4.88;;
12591;SDS011;6361;52.120;5.108;2023-05-21T02:42:04;6.60;;;4.88;;
12591;SDS011;6361;52.120;5.108;2023-05-21T02:44:30;5.95;;;4.82;;
12591;SDS011;6361;52.120;5.108;2023-05-21T02:46:55;5.85;;;4.75;;
12591;SDS011;6361;52.120;5.108;2023-05-21T02:49:20;7.90;;;4.82;;
12591;SDS011;6361;52.120;5.108;2023-05-21T02:51:46;5.68;;;4.70;;
12591;SDS011;6361;52.120;5.108;2023-05-21T02:54:11;7.18;;;5.10;;
12591;SDS011;6361;52.120;5.108;2023-05-21T02:56:36;5.95;;;5.03;;
12591;SDS011;6361;52.120;5.108;2023-05-21T02:59:02;11.52;;;5.13;;
12591;SDS011;6361;52.120;5.108;2023-05-21T03:01:27;9.13;;;5.13;;
12591;SDS011;6361;52.120;5.108;2023-05-21T03:03:53;6.60;;;5.15;;
12591;SDS011;6361;52.120;5.108;2023-05-21T03:06:18;8.85;;;5.38;;
12591;SDS011;6361;52.120;5.108;2023-05-21T03:08:43;12.77;;;5.10;;
12591;SDS011;6361;52.120;5.108;2023-05-21T03:11:09;6.22;;;4.95;;
12591;SDS011;6361;52.120;5.108;2023-05-21T03:13:35;6.57;;;4.80;;
12591;SDS011;6361;52.120;5.108;2023-05-21T03:16:00;7.63;;;5.20;;
12591;SDS011;6361;52.120;5.108;2023-05-21T03:18:25;9.25;;;4.80;;
12591;SDS011;6361;52.120;5.108;2023-05-21T03:20:51;7.50;;;5.05;;
12591;SDS011;6361;52.120;5.108;2023-05-21T03:23:16;7.35;;;5.50;;
12591;SDS011;6361;52.120;5.108;2023-05-21T03:25:41;8.18;;;5.78;;
12591;SDS011;6361;52.120;5.108;2023-05-21T03:28:07;6.38;;;4.63;;
12591;SDS011;6361;52.120;5.108;2023-05-21T03:30:34;5.82;;;4.68;;
12591;SDS011;6361;52.120;5.108;2023-05-21T03:33:00;9.25;;;5.13;;
12591;SDS011;6361;52.120;5.108;2023-05-21T03:35:27;7.28;;;5.35;;
12591;SDS011;6361;52.120;5.108;2023-05-21T03:37:52;8.63;;;5.03;;
12591;SDS011;6361;52.120;5.108;2023-05-21T03:40:17;9.75;;;5.45;;
12591;SDS011;6361;52.120;5.108;2023-05-21T03:42:43;7.40;;;5.28;;
12591;SDS011;6361;52.120;5.108;2023-05-21T03:45:08;7.00;;;5.15;;
12591;SDS011;6361;52.120;5.108;2023-05-21T03:47:34;7.55;;;5.07;;
12591;SDS011;6361;52.120;5.108;2023-05-21T03:50:02;6.03;;;4.85;;
12591;SDS011;6361;52.120;5.108;2023-05-21T03:52:29;8.15;;;5.20;;
12591;SDS011;6361;52.120;5.108;2023-05-21T03:54:54;6.18;;;4.93;;
12591;SDS011;6361;52.120;5.108;2023-05-21T03:57:20;6.85;;;5.32;;
12591;SDS011;6361;52.120;5.108;2023-05-21T03:59:45;7.88;;;5.55;;
12591;SDS011;6361;52.120;5.108;2023-05-21T04:02:11;5.72;;;4.88;;
12591;SDS011;6361;52.120;5.108;2023-05-21T04:04:36;6.30;;;5.00;;
12591;SDS011;6361;52.120;5.108;2023-05-21T04:07:01;6.13;;;4.82;;
12591;SDS011;6361;52.120;5.108;2023-05-21T04:09:28;6.70;;;5.43;;
12591;SDS011;6361;52.120;5.108;2023-05-21T04:11:54;6.72;;;4.82;;
12591;SDS011;6361;52.120;5.108;2023-05-21T04:14:19;7.00;;;4.80;;
12591;SDS011;6361;52.120;5.108;2023-05-21T04:16:45;6.55;;;4.78;;
12591;SDS011;6361;52.120;5.108;2023-05-21T04:19:13;7.00;;;4.65;;
12591;SDS011;6361;52.120;5.108;2023-05-21T04:21:38;8.35;;;4.60;;
12591;SDS011;6361;52.120;5.108;2023-05-21T04:24:04;8.15;;;4.85;;
12591;SDS011;6361;52.120;5.108;2023-05-21T04:26:29;5.68;;;4.70;;
12591;SDS011;6361;52.120;5.108;2023-05-21T04:28:57;5.95;;;4.70;;
12591;SDS011;6361;52.120;5.108;2023-05-21T04:31:23;7.70;;;5.13;;
12591;SDS011;6361;52.120;5.108;2023-05-21T04:33:48;8.95;;;4.88;;
12591;SDS011;6361;52.120;5.108;2023-05-21T04:36:14;6.55;;;4.97;;
12591;SDS011;6361;52.120;5.108;2023-05-21T04:38:41;10.45;;;5.15;;
12591;SDS011;6361;52.120;5.108;2023-05-21T04:41:06;6.00;;;4.55;;
12591;SDS011;6361;52.120;5.108;2023-05-21T04:43:34;9.48;;;5.10;;
12591;SDS011;6361;52.120;5.108;2023-05-21T04:46:02;5.80;;;4.70;;
12591;SDS011;6361;52.120;5.108;2023-05-21T04:48:27;7.50;;;4.75;;
12591;SDS011;6361;52.120;5.108;2023-05-21T04:50:53;7.80;;;4.70;;
12591;SDS011;6361;52.120;5.108;2023-05-21T04:53:19;14.65;;;5.38;;
12591;SDS011;6361;52.120;5.108;2023-05-21T04:55:45;8.38;;;5.30;;
12591;SDS011;6361;52.120;5.108;2023-05-21T04:58:11;7.15;;;4.47;;
12591;SDS011;6361;52.120;5.108;2023-05-21T05:00:36;7.50;;;4.90;;
12591;SDS011;6361;52.120;5.108;2023-05-21T05:03:02;7.72;;;4.70;;
12591;SDS011;6361;52.120;5.108;2023-05-21T05:05:28;10.02;;;4.75;;
12591;SDS011;6361;52.120;5.108;2023-05-21T05:07:53;5.97;;;4.78;;
12591;SDS011;6361;52.120;5.108;2023-05-21T05:10:19;7.63;;;4.65;;
12591;SDS011;6361;52.120;5.108;2023-05-21T05:12:44;5.55;;;4.70;;
12591;SDS011;6361;52.120;5.108;2023-05-21T05:15:09;8.60;;;4.90;;
12591;SDS011;6361;52.120;5.108;2023-05-21T05:17:35;6.35;;;4.65;;
12591;SDS011;6361;52.120;5.108;2023-05-21T05:20:00;8.13;;;4.93;;
12591;SDS011;6361;52.120;5.108;2023-05-21T05:22:26;6.57;;;4.60;;
12591;SDS011;6361;52.120;5.108;2023-05-21T05:24:51;7.70;;;5.00;;
12591;SDS011;6361;52.120;5.108;2023-05-21T05:27:16;7.00;;;4.80;;
12591;SDS011;6361;52.120;5.108;2023-05-21T05:29:43;8.80;;;5.20;;
12591;SDS011;6361;52.120;5.108;2023-05-21T05:32:08;11.57;;;4.97;;
12591;SDS011;6361;52.120;5.108;2023-05-21T05:34:34;6.43;;;4.60;;
12591;SDS011;6361;52.120;5.108;2023-05-21T05:36:59;6.80;;;4.53;;
12591;SDS011;6361;52.120;5.108;2023-05-21T05:39:27;6.95;;;4.90;;
12591;SDS011;6361;52.120;5.108;2023-05-21T05:41:52;8.18;;;4.70;;
12591;SDS011;6361;52.120;5.108;2023-05-21T05:44:17;13.23;;;4.80;;
12591;SDS011;6361;52.120;5.108;2023-05-21T05:46:43;7.88;;;4.75;;
12591;SDS011;6361;52.120;5.108;2023-05-21T05:49:08;7.35;;;5.25;;
12591;SDS011;6361;52.120;5.108;2023-05-21T05:51:33;8.60;;;5.28;;
12591;SDS011;6361;52.120;5.108;2023-05-21T05:54:01;10.50;;;5.20;;
12591;SDS011;6361;52.120;5.108;2023-05-21T05:56:27;8.05;;;5.38;;
12591;SDS011;6361;52.120;5.108;2023-05-21T05:58:52;11.50;;;6.00;;
12591;SDS011;6361;52.120;5.108;2023-05-21T06:01:17;6.72;;;5.10;;
12591;SDS011;6361;52.120;5.108;2023-05-21T06:03:43;6.97;;;5.40;;
12591;SDS011;6361;52.120;5.108;2023-05-21T06:06:08;9.02;;;5.57;;
12591;SDS011;6361;52.120;5.108;2023-05-21T06:08:34;8.80;;;5.70;;
12591;SDS011;6361;52.120;5.108;2023-05-21T06:10:59;8.10;;;6.07;;
12591;SDS011;6361;52.120;5.108;2023-05-21T06:13:25;9.35;;;5.80;;
12591;SDS011;6361;52.120;5.108;2023-05-21T06:15:51;9.88;;;6.40;;
12591;SDS011;6361;52.120;5.108;2023-05-21T06:18:17;7.95;;;5.95;;
12591;SDS011;6361;52.120;5.108;2023-05-21T06:20:42;8.07;;;5.97;;
12591;SDS011;6361;52.120;5.108;2023-05-21T06:23:07;8.38;;;6.05;;
12591;SDS011;6361;52.120;5.108;2023-05-21T06:25:33;10.10;;;6.50;;
12591;SDS011;6361;52.120;5.108;2023-05-21T06:27:59;8.68;;;6.30;;
12591;SDS011;6361;52.120;5.108;2023-05-21T06:30:24;8.27;;;6.30;;
12591;SDS011;6361;52.120;5.108;2023-05-21T06:32:49;10.15;;;6.53;;
12591;SDS011;6361;52.120;5.108;2023-05-21T06:35:15;9.85;;;6.45;;
12591;SDS011;6361;52.120;5.108;2023-05-21T06:37:40;8.27;;;6.55;;
12591;SDS011;6361;52.120;5.108;2023-05-21T06:40:07;9.23;;;6.32;;
12591;SDS011;6361;52.120;5.108;2023-05-21T06:42:32;10.02;;;6.75;;
12591;SDS011;6361;52.120;5.108;2023-05-21T06:44:58;9.15;;;6.20;;
12591;SDS011;6361;52.120;5.108;2023-05-21T06:47:23;7.15;;;6.22;;
12591;SDS011;6361;52.120;5.108;2023-05-21T06:49:48;7.75;;;6.40;;
12591;SDS011;6361;52.120;5.108;2023-05-21T06:52:14;11.43;;;6.75;;
12591;SDS011;6361;52.120;5.108;2023-05-21T06:54:39;9.43;;;6.75;;
12591;SDS011;6361;52.120;5.108;2023-05-21T06:57:05;11.25;;;6.85;;
12591;SDS011;6361;52.120;5.108;2023-05-21T06:59:30;10.52;;;7.00;;
12591;SDS011;6361;52.120;5.108;2023-05-21T07:01:56;9.00;;;6.60;;
12591;SDS011;6361;52.120;5.108;2023-05-21T07:04:21;11.57;;;7.57;;
12591;SDS011;6361;52.120;5.108;2023-05-21T07:06:46;11.20;;;7.05;;
12591;SDS011;6361;52.120;5.108;2023-05-21T07:09:12;11.73;;;7.15;;
12591;SDS011;6361;52.120;5.108;2023-05-21T07:11:38;12.38;;;7.43;;
12591;SDS011;6361;52.120;5.108;2023-05-21T07:14:03;10.80;;;6.85;;
12591;SDS011;6361;52.120;5.108;2023-05-21T07:16:28;12.13;;;6.88;;
12591;SDS011;6361;52.120;5.108;2023-05-21T07:18:54;8.02;;;6.72;;
12591;SDS011;6361;52.120;5.108;2023-05-21T07:21:19;11.05;;;7.05;;
12591;SDS011;6361;52.120;5.108;2023-05-21T07:23:45;11.10;;;7.18;;
12591;SDS011;6361;52.120;5.108;2023-05-21T07:26:10;13.23;;;7.47;;
12591;SDS011;6361;52.120;5.108;2023-05-21T07:28:35;8.25;;;6.63;;
12591;SDS011;6361;52.120;5.108;2023-05-21T07:31:01;11.40;;;6.72;;
12591;SDS011;6361;52.120;5.108;2023-05-21T07:33:26;10.38;;;7.40;;
12591;SDS011;6361;52.120;5.108;2023-05-21T07:35:52;9.15;;;7.07;;
12591;SDS011;6361;52.120;5.108;2023-05-21T07:38:17;9.52;;;6.80;;
12591;SDS011;6361;52.120;5.108;2023-05-21T07:40:43;10.32;;;7.20;;
12591;SDS011;6361;52.120;5.108;2023-05-21T07:43:09;8.23;;;6.82;;
12591;SDS011;6361;52.120;5.108;2023-05-21T07:45:34;9.50;;;6.93;;
12591;SDS011;6361;52.120;5.108;2023-05-21T07:47:59;10.30;;;7.18;;
12591;SDS011;6361;52.120;5.108;2023-05-21T07:50:25;8.73;;;7.13;;
12591;SDS011;6361;52.120;5.108;2023-05-21T07:52:50;13.02;;;8.15;;
12591;SDS011;6361;52.120;5.108;2023-05-21T07:55:16;10.45;;;7.07;;
12591;SDS011;6361;52.120;5.108;2023-05-21T07:57:41;10.40;;;7.30;;
12591;SDS011;6361;52.120;5.108;2023-05-21T08:00:07;10.20;;;7.40;;
12591;SDS011;6361;52.120;5.108;2023-05-21T08:02:38;9.30;;;7.07;;
12591;SDS011;6361;52.120;5.108;2023-05-21T08:05:03;13.43;;;7.63;;
12591;SDS011;6361;52.120;5.108;2023-05-21T08:07:29;11.45;;;7.43;;
12591;SDS011;6361;52.120;5.108;2023-05-21T08:09:56;10.65;;;7.28;;
12591;SDS011;6361;52.120;5.108;2023-05-21T08:12:22;11.25;;;7.35;;
12591;SDS011;6361;52.120;5.108;2023-05-21T08:14:47;11.98;;;7.75;;
12591;SDS011;6361;52.120;5.108;2023-05-21T08:17:13;9.32;;;7.45;;
12591;SDS011;6361;52.120;5.108;2023-05-21T08:19:38;9.18;;;7.38;;
12591;SDS011;6361;52.120;5.108;2023-05-21T08:22:04;12.50;;;7.43;;
12591;SDS011;6361;52.120;5.108;2023-05-21T08:24:32;11.48;;;7.43;;
12591;SDS011;6361;52.120;5.108;2023-05-21T08:26:58;12.50;;;7.60;;
12591;SDS011;6361;52.120;5.108;2023-05-21T08:29:23;11.02;;;7.38;;
12591;SDS011;6361;52.120;5.108;2023-05-21T08:31:48;12.20;;;9.32;;
12591;SDS011;6361;52.120;5.108;2023-05-21T08:34:14;13.57;;;7.95;;
12591;SDS011;6361;52.120;5.108;2023-05-21T08:36:40;12.15;;;7.65;;
12591;SDS011;6361;52.120;5.108;2023-05-21T08:39:10;12.85;;;8.95;;
12591;SDS011;6361;52.120;5.108;2023-05-21T08:41:36;11.75;;;8.23;;
12591;SDS011;6361;52.120;5.108;2023-05-21T08:44:02;12.15;;;7.43;;
12591;SDS011;6361;52.120;5.108;2023-05-21T08:46:31;12.07;;;7.93;;
12591;SDS011;6361;52.120;5.108;2023-05-21T08:48:58;10.32;;;7.60;;
12591;SDS011;6361;52.120;5.108;2023-05-21T08:51:23;10.50;;;7.25;;
12591;SDS011;6361;52.120;5.108;2023-05-21T08:53:49;12.65;;;7.80;;
12591;SDS011;6361;52.120;5.108;2023-05-21T08:56:15;11.95;;;7.57;;
12591;SDS011;6361;52.120;5.108;2023-05-21T08:58:41;10.77;;;7.13;;
12591;SDS011;6361;52.120;5.108;2023-05-21T09:01:10;14.70;;;7.28;;
12591;SDS011;6361;52.120;5.108;2023-05-21T09:03:36;10.70;;;7.57;;
12591;SDS011;6361;52.120;5.108;2023-05-21T09:06:04;11.95;;;7.47;;
12591;SDS011;6361;52.120;5.108;2023-05-21T09:08:30;10.80;;;7.22;;
12591;SDS011;6361;52.120;5.108;2023-05-21T09:10:56;9.63;;;7.38;;
12591;SDS011;6361;52.120;5.108;2023-05-21T09:13:22;13.07;;;7.68;;
12591;SDS011;6361;52.120;5.108;2023-05-21T09:15:49;11.55;;;7.53;;
12591;SDS011;6361;52.120;5.108;2023-05-21T09:18:15;9.80;;;7.68;;
12591;SDS011;6361;52.120;5.108;2023-05-21T09:20:41;9.25;;;7.13;;
12591;SDS011;6361;52.120;5.108;2023-05-21T09:23:08;11.02;;;7.88;;
12591;SDS011;6361;52.120;5.108;2023-05-21T09:25:40;11.68;;;7.28;;
12591;SDS011;6361;52.120;5.108;2023-05-21T09:28:12;12.85;;;7.32;;
12591;SDS011;6361;52.120;5.108;2023-05-21T09:30:45;10.93;;;7.63;;
12591;SDS011;6361;52.120;5.108;2023-05-21T09:33:12;17.90;;;7.80;;
12591;SDS011;6361;52.120;5.108;2023-05-21T09:35:51;11.32;;;7.07;;
12591;SDS011;6361;52.120;5.108;2023-05-21T09:38:16;11.65;;;7.35;;
12591;SDS011;6361;52.120;5.108;2023-05-21T09:40:42;11.27;;;7.30;;
12591;SDS011;6361;52.120;5.108;2023-05-21T09:43:11;10.27;;;7.57;;
12591;SDS011;6361;52.120;5.108;2023-05-21T09:45:38;11.75;;;8.02;;
12591;SDS011;6361;52.120;5.108;2023-05-21T09:48:14;11.30;;;7.45;;
12591;SDS011;6361;52.120;5.108;2023-05-21T09:50:40;13.45;;;8.02;;
12591;SDS011;6361;52.120;5.108;2023-05-21T09:53:10;12.15;;;7.75;;
12591;SDS011;6361;52.120;5.108;2023-05-21T09:55:36;13.43;;;7.90;;
12591;SDS011;6361;52.120;5.108;2023-05-21T09:58:01;11.60;;;7.60;;
12591;SDS011;6361;52.120;5.108;2023-05-21T10:00:28;11.20;;;8.30;;
12591;SDS011;6361;52.120;5.108;2023-05-21T10:02:55;9.38;;;7.20;;
12591;SDS011;6361;52.120;5.108;2023-05-21T10:05:24;12.93;;;8.63;;
12591;SDS011;6361;52.120;5.108;2023-05-21T10:08:00;11.68;;;7.78;;
12591;SDS011;6361;52.120;5.108;2023-05-21T10:10:28;9.15;;;7.18;;
12591;SDS011;6361;52.120;5.108;2023-05-21T10:12:56;10.93;;;7.80;;
12591;SDS011;6361;52.120;5.108;2023-05-21T10:15:23;11.18;;;7.60;;
12591;SDS011;6361;52.120;5.108;2023-05-21T10:17:49;8.82;;;7.05;;
12591;SDS011;6361;52.120;5.108;2023-05-21T10:20:16;10.20;;;6.82;;
12591;SDS011;6361;52.120;5.108;2023-05-21T10:22:42;9.02;;;6.53;;
12591;SDS011;6361;52.120;5.108;2023-05-21T10:25:08;12.02;;;7.35;;
12591;SDS011;6361;52.120;5.108;2023-05-21T10:27:34;11.40;;;7.03;;
12591;SDS011;6361;52.120;5.108;2023-05-21T10:30:00;11.48;;;8.05;;
12591;SDS011;6361;52.120;5.108;2023-05-21T10:32:26;8.95;;;6.50;;
12591;SDS011;6361;52.120;5.108;2023-05-21T10:34:52;8.23;;;6.88;;
12591;SDS011;6361;52.120;5.108;2023-05-21T10:37:17;9.63;;;6.95;;
12591;SDS011;6361;52.120;5.108;2023-05-21T10:39:44;9.98;;;6.50;;
12591;SDS011;6361;52.120;5.108;2023-05-21T10:45:05;11.75;;;6.97;;
12591;SDS011;6361;52.120;5.108;2023-05-21T10:48:34;10.90;;;6.88;;
12591;SDS011;6361;52.120;5.108;2023-05-21T10:53:37;9.88;;;6.30;;
12591;SDS011;6361;52.120;5.108;2023-05-21T11:02:04;10.07;;;6.68;;
12591;SDS011;6361;52.120;5.108;2023-05-21T11:04:30;10.32;;;6.72;;
12591;SDS011;6361;52.120;5.108;2023-05-21T11:06:57;10.57;;;6.82;;
12591;SDS011;6361;52.120;5.108;2023-05-21T11:09:22;10.13;;;6.90;;
12591;SDS011;6361;52.120;5.108;2023-05-21T11:11:51;11.60;;;6.10;;
12591;SDS011;6361;52.120;5.108;2023-05-21T11:14:28;12.18;;;6.95;;
12591;SDS011;6361;52.120;5.108;2023-05-21T11:17:03;12.00;;;7.82;;
12591;SDS011;6361;52.120;5.108;2023-05-21T11:19:34;13.32;;;7.13;;
12591;SDS011;6361;52.120;5.108;2023-05-21T11:22:04;10.27;;;7.00;;
12591;SDS011;6361;52.120;5.108;2023-05-21T11:24:49;10.45;;;6.97;;
12591;SDS011;6361;52.120;5.108;2023-05-21T11:30:02;11.73;;;7.00;;
12591;SDS011;6361;52.120;5.108;2023-05-21T11:32:35;13.73;;;6.97;;
12591;SDS011;6361;52.120;5.108;2023-05-21T11:35:04;10.85;;;7.28;;
12591;SDS011;6361;52.120;5.108;2023-05-21T11:37:33;9.13;;;7.07;;
12591;SDS011;6361;52.120;5.108;2023-05-21T11:40:18;11.55;;;7.00;;
12591;SDS011;6361;52.120;5.108;2023-05-21T11:42:50;11.25;;;6.70;;
12591;SDS011;6361;52.120;5.108;2023-05-21T11:45:19;11.93;;;7.47;;
12591;SDS011;6361;52.120;5.108;2023-05-21T11:47:48;11.63;;;7.30;;
12591;SDS011;6361;52.120;5.108;2023-05-21T11:50:14;12.00;;;6.55;;
12591;SDS011;6361;52.120;5.108;2023-05-21T11:52:40;12.07;;;6.88;;
12591;SDS011;6361;52.120;5.108;2023-05-21T11:55:06;9.85;;;6.75;;
12591;SDS011;6361;52.120;5.108;2023-05-21T11:57:32;9.50;;;6.82;;
12591;SDS011;6361;52.120;5.108;2023-05-21T11:59:58;12.85;;;6.57;;
12591;SDS011;6361;52.120;5.108;2023-05-21T12:02:26;10.32;;;6.70;;
12591;SDS011;6361;52.120;5.108;2023-05-21T12:04:52;11.73;;;6.72;;
12591;SDS011;6361;52.120;5.108;2023-05-21T12:07:18;10.23;;;7.22;;
12591;SDS011;6361;52.120;5.108;2023-05-21T12:09:45;10.70;;;6.82;;
12591;SDS011;6361;52.120;5.108;2023-05-21T12:12:14;14.38;;;6.97;;
12591;SDS011;6361;52.120;5.108;2023-05-21T12:14:44;11.38;;;6.32;;
12591;SDS011;6361;52.120;5.108;2023-05-21T12:17:11;10.43;;;6.75;;
12591;SDS011;6361;52.120;5.108;2023-05-21T12:19:39;10.57;;;6.60;;
12591;SDS011;6361;52.120;5.108;2023-05-21T12:22:05;12.52;;;6.75;;
12591;SDS011;6361;52.120;5.108;2023-05-21T12:24:31;10.88;;;6.53;;
12591;SDS011;6361;52.120;5.108;2023-05-21T12:26:58;11.88;;;6.90;;
12591;SDS011;6361;52.120;5.108;2023-05-21T12:29:25;11.43;;;6.57;;
12591;SDS011;6361;52.120;5.108;2023-05-21T12:31:57;12.98;;;6.80;;
12591;SDS011;6361;52.120;5.108;2023-05-21T12:34:43;10.85;;;6.90;;
12591;SDS011;6361;52.120;5.108;2023-05-21T12:37:20;11.63;;;6.68;;
12591;SDS011;6361;52.120;5.108;2023-05-21T12:39:47;10.10;;;6.85;;
12591;SDS011;6361;52.120;5.108;2023-05-21T12:42:13;13.63;;;6.32;;
12591;SDS011;6361;52.120;5.108;2023-05-21T12:44:43;11.65;;;6.50;;
12591;SDS011;6361;52.120;5.108;2023-05-21T12:47:10;10.25;;;6.82;;
12591;SDS011;6361;52.120;5.108;2023-05-21T12:49:38;16.17;;;7.50;;
12591;SDS011;6361;52.120;5.108;2023-05-21T12:52:04;8.32;;;6.88;;
12591;SDS011;6361;52.120;5.108;2023-05-21T12:54:32;10.55;;;6.75;;
12591;SDS011;6361;52.120;5.108;2023-05-21T12:57:09;9.95;;;6.35;;
12591;SDS011;6361;52.120;5.108;2023-05-21T12:59:42;10.80;;;6.95;;
12591;SDS011;6361;52.120;5.108;2023-05-21T13:02:13;12.20;;;6.68;;
12591;SDS011;6361;52.120;5.108;2023-05-21T13:04:52;9.63;;;7.03;;
12591;SDS011;6361;52.120;5.108;2023-05-21T13:07:19;13.68;;;6.70;;
12591;SDS011;6361;52.120;5.108;2023-05-21T13:09:44;10.52;;;6.65;;
12591;SDS011;6361;52.120;5.108;2023-05-21T13:12:10;10.05;;;7.25;;
12591;SDS011;6361;52.120;5.108;2023-05-21T13:14:36;8.43;;;6.53;;
12591;SDS011;6361;52.120;5.108;2023-05-21T13:17:02;13.63;;;6.47;;
12591;SDS011;6361;52.120;5.108;2023-05-21T13:19:27;9.18;;;6.75;;
12591;SDS011;6361;52.120;5.108;2023-05-21T13:21:53;13.23;;;7.00;;
12591;SDS011;6361;52.120;5.108;2023-05-21T13:24:18;15.23;;;7.45;;
12591;SDS011;6361;52.120;5.108;2023-05-21T13:26:43;12.27;;;7.25;;
12591;SDS011;6361;52.120;5.108;2023-05-21T13:29:09;13.13;;;6.75;;
12591;SDS011;6361;52.120;5.108;2023-05-21T13:31:38;10.95;;;7.15;;
12591;SDS011;6361;52.120;5.108;2023-05-21T13:34:04;12.07;;;6.88;;
12591;SDS011;6361;52.120;5.108;2023-05-21T13:36:31;13.02;;;6.63;;
12591;SDS011;6361;52.120;5.108;2023-05-21T13:38:57;11.07;;;6.75;;
12591;SDS011;6361;52.120;5.108;2023-05-21T13:41:22;13.35;;;6.50;;
12591;SDS011;6361;52.120;5.108;2023-05-21T13:43:48;9.13;;;5.63;;
12591;SDS011;6361;52.120;5.108;2023-05-21T13:46:13;13.63;;;7.53;;
12591;SDS011;6361;52.120;5.108;2023-05-21T13:48:38;10.00;;;6.53;;
12591;SDS011;6361;52.120;5.108;2023-05-21T13:51:04;11.45;;;6.32;;
12591;SDS011;6361;52.120;5.108;2023-05-21T13:53:29;9.95;;;6.43;;
12591;SDS011;6361;52.120;5.108;2023-05-21T13:55:55;9.85;;;5.75;;
12591;SDS011;6361;52.120;5.108;2023-05-21T13:58:20;9.15;;;6.40;;
12591;SDS011;6361;52.120;5.108;2023-05-21T14:00:45;11.73;;;5.65;;
12591;SDS011;6361;52.120;5.108;2023-05-21T14:03:11;11.50;;;6.47;;
12591;SDS011;6361;52.120;5.108;2023-05-21T14:05:36;10.32;;;5.72;;
12591;SDS011;6361;52.120;5.108;2023-05-21T14:08:02;11.20;;;5.97;;
12591;SDS011;6361;52.120;5.108;2023-05-21T14:10:28;10.20;;;6.50;;
12591;SDS011;6361;52.120;5.108;2023-05-21T14:12:53;8.57;;;5.50;;
12591;SDS011;6361;52.120;5.108;2023-05-21T14:15:19;12.27;;;6.53;;
12591;SDS011;6361;52.120;5.108;2023-05-21T14:17:45;9.43;;;5.97;;
12591;SDS011;6361;52.120;5.108;2023-05-21T14:20:10;11.98;;;6.63;;
12591;SDS011;6361;52.120;5.108;2023-05-21T14:22:36;7.60;;;5.90;;
12591;SDS011;6361;52.120;5.108;2023-05-21T14:25:02;12.32;;;5.95;;
12591;SDS011;6361;52.120;5.108;2023-05-21T14:27:27;9.15;;;6.07;;
12591;SDS011;6361;52.120;5.108;2023-05-21T14:29:52;8.52;;;5.60;;
12591;SDS011;6361;52.120;5.108;2023-05-21T14:32:18;9.77;;;5.65;;
12591;SDS011;6361;52.120;5.108;2023-05-21T14:34:43;10.07;;;5.57;;
12591;SDS011;6361;52.120;5.108;2023-05-21T14:37:08;10.63;;;5.30;;
12591;SDS011;6361;52.120;5.108;2023-05-21T14:39:34;11.65;;;5.63;;
12591;SDS011;6361;52.120;5.108;2023-05-21T14:42:01;14.02;;;5.28;;
12591;SDS011;6361;52.120;5.108;2023-05-21T14:44:27;8.85;;;5.40;;
12591;SDS011;6361;52.120;5.108;2023-05-21T14:46:53;12.35;;;5.82;;
12591;SDS011;6361;52.120;5.108;2023-05-21T14:49:18;9.55;;;5.40;;
12591;SDS011;6361;52.120;5.108;2023-05-21T14:51:43;10.20;;;5.90;;
12591;SDS011;6361;52.120;5.108;2023-05-21T14:54:11;11.25;;;5.38;;
12591;SDS011;6361;52.120;5.108;2023-05-21T14:56:36;8.38;;;6.10;;
12591;SDS011;6361;52.120;5.108;2023-05-21T14:59:02;12.05;;;5.72;;
12591;SDS011;6361;52.120;5.108;2023-05-21T15:01:27;12.77;;;5.35;;
12591;SDS011;6361;52.120;5.108;2023-05-21T15:03:52;8.18;;;5.57;;
12591;SDS011;6361;52.120;5.108;2023-05-21T15:06:20;11.20;;;6.45;;
12591;SDS011;6361;52.120;5.108;2023-05-21T15:08:46;12.90;;;5.53;;
12591;SDS011;6361;52.120;5.108;2023-05-21T15:11:11;8.77;;;5.40;;